Time;durP1;ratioP1;P1;durP2;ratioP2;P2;SDS_P1;SDS_P2;PMS_P1;PMS_P2;Temp;Humidity;BMP_temperature;BMP_pressure;BME280_temperature;BME280_humidity;BME280_pressure;Samples;Min_cycle;Max_cycle;Signal;HPM_P1;HPM_P2
2022/06/29 00:00:27;;;;;;;2.40;2.30;;;;;;;19.64;95.90;95360.06;4359571;32;20207;-56
2022/06/29 00:02:55;;;;;;;18.57;3.03;;;;;;;19.57;96.75;95352.59;4333421;32;20197;-55
2022/06/29 00:05:23;;;;;;;2.20;2.10;;;;;;;19.63;96.62;95343.13;4318067;32;20193;-54
2022/06/29 00:07:51;;;;;;;2.90;2.80;;;;;;;19.81;96.21;95349.69;4315412;32;20193;-53
2022/06/29 00:10:18;;;;;;;2.03;1.93;;;;;;;19.74;95.66;95346.06;4337097;32;20200;-54
2022/06/29 00:12:49;;;;;;;2.70;2.60;;;;;;;19.84;95.91;95337.44;4363631;32;20193;-54
2022/06/29 00:15:18;;;;;;;2.77;2.43;;;;;;;19.84;95.92;95340.12;4349394;32;20224;-56
2022/06/29 00:17:45;;;;;;;3.17;2.97;;;;;;;19.87;95.76;95334.03;4345882;32;20192;-54
2022/06/29 00:20:14;;;;;;;1.97;1.87;;;;;;;19.73;95.98;95326.44;4356240;32;20239;-52
2022/06/29 00:22:43;;;;;;;1.87;1.77;;;;;;;19.92;95.31;95316.84;4332643;32;20213;-53
2022/06/29 00:25:12;;;;;;;1.57;1.57;;;;;;;19.94;94.65;95317.28;4341084;32;20234;-51
2022/06/29 00:27:39;;;;;;;2.77;2.10;;;;;;;19.91;94.91;95307.97;4344986;32;20327;-51
2022/06/29 00:30:08;;;;;;;9.20;2.57;;;;;;;19.98;94.20;95310.03;4370450;32;20219;-53
2022/06/29 00:32:33;;;;;;;1.80;1.70;;;;;;;19.93;94.75;95302.25;4367487;32;22293;-55
2022/06/29 00:35:00;;;;;;;3.00;2.80;;;;;;;19.88;95.09;95304.06;4373019;32;20184;-51
2022/06/29 00:37:28;;;;;;;2.77;2.67;;;;;;;19.83;95.54;95293.56;4345413;32;20185;-54
2022/06/29 00:39:53;;;;;;;2.00;1.90;;;;;;;19.78;95.90;95291.16;4337332;32;20201;-52
2022/06/29 00:42:19;;;;;;;2.53;2.43;;;;;;;19.71;96.17;95288.31;4348733;32;20200;-51
2022/06/29 00:44:48;;;;;;;2.63;2.53;;;;;;;19.73;96.50;95294.12;4364357;32;20189;-51
2022/06/29 00:47:16;;;;;;;1.70;1.60;;;;;;;19.65;96.64;95292.41;4332394;32;20240;-51
2022/06/29 00:49:47;;;;;;;1.97;1.97;;;;;;;19.73;96.21;95291.44;4366978;32;20193;-53
2022/06/29 00:52:15;;;;;;;2.23;2.13;;;;;;;19.75;96.02;95288.38;4362923;32;20210;-57
2022/06/29 00:55:15;;;;;;;1.83;1.77;;;;;;;19.81;95.60;95278.91;4341623;32;20196;-54
2022/06/29 00:57:45;;;;;;;1.93;1.90;;;;;;;19.80;95.74;95277.34;4308255;32;20216;-55
2022/06/29 01:00:14;;;;;;;3.00;2.70;;;;;;;19.95;94.87;95279.22;4322077;32;20200;-52
2022/06/29 01:02:40;;;;;;;1.80;1.70;;;;;;;19.82;95.09;95275.06;4343932;32;20279;-52
2022/06/29 01:05:09;;;;;;;1.23;1.23;;;;;;;19.88;95.28;95274.44;4352425;32;20214;-53
2022/06/29 01:07:36;;;;;;;2.00;1.93;;;;;;;19.83;95.23;95263.94;4368887;32;20221;-54
2022/06/29 01:10:03;;;;;;;2.20;2.10;;;;;;;19.84;95.31;95276.28;4358663;32;20200;-54
2022/06/29 01:12:31;;;;;;;3.03;1.80;;;;;;;19.83;95.24;95280.09;4330432;32;20201;-52
2022/06/29 01:14:58;;;;;;;2.73;2.57;;;;;;;19.94;95.00;95288.44;4334458;32;20188;-52
2022/06/29 01:17:25;;;;;;;2.13;2.03;;;;;;;19.93;94.95;95302.25;4344705;32;20197;-51
2022/06/29 01:19:52;;;;;;;1.77;1.67;;;;;;;19.82;95.71;95308.16;4363339;32;20197;-48
2022/06/29 01:22:20;;;;;;;1.83;1.73;;;;;;;19.80;95.51;95315.81;4364553;32;20189;-54
2022/06/29 01:24:47;;;;;;;1.37;1.37;;;;;;;19.79;95.39;95335.78;4370077;32;20226;-53
2022/06/29 01:27:16;;;;;;;2.10;2.10;;;;;;;19.83;95.49;95315.13;4336660;32;20206;-53
2022/06/29 01:29:44;;;;;;;2.10;2.00;;;;;;;19.94;95.22;95309.97;4350146;32;20189;-51
2022/06/29 01:32:11;;;;;;;1.77;1.73;;;;;;;19.94;94.82;95304.59;4326377;32;20193;-50
2022/06/29 01:34:39;;;;;;;2.57;2.47;;;;;;;19.94;94.99;95303.81;4350508;32;20199;-55
2022/06/29 01:37:16;;;;;;;2.10;2.00;;;;;;;20.06;94.50;95280.19;4337590;32;20254;-55
2022/06/29 01:39:42;;;;;;;1.63;1.53;;;;;;;20.01;94.29;95275.09;4348709;32;20189;-53
2022/06/29 01:42:09;;;;;;;4.67;1.53;;;;;;;19.98;94.74;95264.22;4366729;32;20188;-55
2022/06/29 01:44:36;;;;;;;1.80;1.70;;;;;;;19.99;94.28;95258.50;4358504;32;20183;-55
2022/06/29 01:47:02;;;;;;;1.93;1.87;;;;;;;19.82;95.23;95253.53;4355555;32;20204;-55
2022/06/29 01:49:29;;;;;;;2.40;2.30;;;;;;;19.89;94.86;95254.47;4340029;32;20288;-52
2022/06/29 01:51:56;;;;;;;2.43;2.33;;;;;;;19.76;95.44;95247.63;4333849;32;20288;-54
2022/06/29 01:54:24;;;;;;;1.80;1.77;;;;;;;19.73;95.42;95245.69;4358026;32;20189;-54
2022/06/29 01:56:51;;;;;;;2.73;2.53;;;;;;;19.77;95.76;95230.34;4321141;32;20186;-51
2022/06/29 01:59:20;;;;;;;2.27;2.17;;;;;;;19.72;94.89;95236.03;4335091;32;20197;-53
2022/06/29 02:01:48;;;;;;;2.47;2.37;;;;;;;19.52;95.59;95219.09;4324294;32;20189;-61
2022/06/29 02:04:16;;;;;;;3.17;2.87;;;;;;;19.70;95.46;95202.53;4356941;32;20226;-55
2022/06/29 02:06:45;;;;;;;2.27;2.17;;;;;;;19.58;95.32;95198.03;4338533;32;20203;-54
2022/06/29 02:09:15;;;;;;;2.50;2.40;;;;;;;19.47;96.31;95218.56;4335897;32;20209;-53
2022/06/29 02:11:41;;;;;;;2.50;2.23;;;;;;;19.43;96.69;95226.56;4326772;32;20184;-53
2022/06/29 02:14:09;;;;;;;1.87;1.77;;;;;;;19.32;95.95;95208.63;4308602;32;20272;-52
2022/06/29 02:16:36;;;;;;;4.57;2.37;;;;;;;19.36;96.44;95234.47;4330076;32;20204;-53
2022/06/29 02:19:02;;;;;;;3.03;2.93;;;;;;;19.39;96.66;95287.56;4331127;32;20185;-54
2022/06/29 02:21:28;;;;;;;1.23;1.23;;;;;;;19.29;97.20;95311.56;4361940;32;20215;-53
2022/06/29 02:23:58;;;;;;;1.33;1.33;;;;;;;19.41;97.62;95308.75;4368475;32;20267;-50
2022/06/29 02:26:25;;;;;;;1.97;1.87;;;;;;;19.60;96.74;95289.22;4327967;32;20207;-54
2022/06/29 02:28:51;;;;;;;2.90;2.70;;;;;;;19.58;96.13;95264.56;4332626;32;20212;-54
2022/06/29 02:36:46;;;;;;;2.30;2.20;;;;;;;19.62;96.53;95281.56;4324567;32;20204;-49
2022/06/29 02:39:12;;;;;;;2.27;2.17;;;;;;;19.77;95.79;95284.19;4338353;32;20185;-49
2022/06/29 02:41:38;;;;;;;1.77;1.70;;;;;;;19.72;95.72;95271.03;4352630;32;20220;-52
2022/06/29 02:44:04;;;;;;;1.00;1.00;;;;;;;19.80;95.74;95253.09;4325017;32;20296;-54
2022/06/29 02:46:31;;;;;;;2.43;2.33;;;;;;;19.65;95.87;95227.03;4324368;32;20201;-54
2022/06/29 02:48:58;;;;;;;1.40;1.40;;;;;;;19.65;95.69;95243.97;4353758;32;20196;-53
2022/06/29 02:51:25;;;;;;;1.63;1.60;;;;;;;19.65;95.91;95221.66;4329730;32;20301;-55
2022/06/29 02:53:54;;;;;;;1.30;1.30;;;;;;;19.65;96.17;95218.97;4334859;32;20211;-52
2022/06/29 02:56:22;;;;;;;1.87;1.87;;;;;;;19.49;96.40;95224.38;4362344;32;20201;-55
2022/06/29 02:58:50;;;;;;;1.67;1.57;;;;;;;19.51;96.98;95249.06;4383787;32;20211;-55
2022/06/29 03:01:19;;;;;;;1.93;1.83;;;;;;;19.45;97.16;95245.03;4317704;32;20260;-55
2022/06/29 03:03:45;;;;;;;1.90;1.80;;;;;;;19.51;96.76;95232.91;4348563;32;20212;-52
2022/06/29 03:06:15;;;;;;;4.17;2.37;;;;;;;19.62;96.63;95233.91;4363082;32;20185;-54
2022/06/29 03:08:43;;;;;;;2.40;2.30;;;;;;;19.60;97.28;95244.22;4337595;32;20193;-55
2022/06/29 03:11:11;;;;;;;33.17;2.87;;;;;;;19.68;96.61;95243.25;4359194;32;20249;-53
2022/06/29 03:13:36;;;;;;;4.93;2.20;;;;;;;19.67;96.51;95239.00;4344618;32;20268;-52
2022/06/29 03:16:06;;;;;;;2.50;2.23;;;;;;;19.75;96.11;95243.38;4358549;32;20197;-54
2022/06/29 03:18:33;;;;;;;2.30;2.20;;;;;;;19.70;95.99;95259.84;4335100;32;20190;-52
2022/06/29 03:20:59;;;;;;;2.80;2.17;;;;;;;19.65;96.71;95267.41;4336118;32;20197;-55
2022/06/29 03:23:25;;;;;;;5.57;2.47;;;;;;;19.57;97.31;95258.38;4348082;32;20193;-55
2022/06/29 03:25:53;;;;;;;3.07;1.83;;;;;;;19.60;96.85;95257.69;4361264;32;20184;-55
2022/06/29 03:28:19;;;;;;;4.93;1.43;;;;;;;19.52;96.75;95253.31;4338276;32;20177;-52
2022/06/29 03:30:45;;;;;;;1.67;1.57;;;;;;;19.57;96.67;95247.63;4356145;32;20188;-55
2022/06/29 03:33:12;;;;;;;1.47;1.40;;;;;;;19.63;96.60;95248.91;4358993;32;20222;-53
2022/06/29 03:35:38;;;;;;;1.50;1.50;;;;;;;19.60;95.95;95251.53;4363477;32;20184;-52
2022/06/29 03:38:03;;;;;;;1.23;1.23;;;;;;;19.59;95.73;95255.34;4335164;32;20272;-56
2022/06/29 03:40:30;;;;;;;1.87;1.83;;;;;;;19.67;95.47;95255.16;4367654;32;20223;-54
2022/06/29 03:42:56;;;;;;;1.77;1.53;;;;;;;19.55;95.21;95266.03;4358373;32;20205;-52
2022/06/29 03:45:24;;;;;;;1.80;1.70;;;;;;;19.55;95.66;95276.78;4362550;32;20282;-55
2022/06/29 03:47:50;;;;;;;1.47;1.17;;;;;;;19.52;95.81;95266.75;4341177;32;20193;-53
2022/06/29 03:50:16;;;;;;;1.30;1.30;;;;;;;19.47;96.30;95267.00;4357819;32;20193;-55
2022/06/29 03:52:42;;;;;;;1.33;1.30;;;;;;;19.51;96.32;95273.28;4371939;32;20196;-55
2022/06/29 03:55:09;;;;;;;1.90;1.80;;;;;;;19.59;95.95;95276.88;4340749;32;20189;-52
2022/06/29 03:57:36;;;;;;;1.70;1.60;;;;;;;19.51;96.39;95281.34;4366329;32;20192;-56
2022/06/29 04:00:13;;;;;;;2.00;1.83;;;;;;;19.59;95.40;95285.72;4356479;32;20189;-53
2022/06/29 04:02:44;;;;;;;1.27;1.27;;;;;;;19.73;95.33;95279.91;4358063;32;20243;-54
2022/06/29 04:05:10;;;;;;;1.30;1.30;;;;;;;19.74;95.41;95282.25;4325138;32;20220;-53
2022/06/29 04:07:37;;;;;;;2.07;1.87;;;;;;;19.88;94.96;95284.44;4357263;32;20193;-53
2022/06/29 04:10:10;;;;;;;1.57;1.50;;;;;;;19.93;94.92;95292.25;4350066;32;20266;-53
2022/06/29 04:12:37;;;;;;;2.13;2.03;;;;;;;19.93;95.00;95280.69;4358533;32;20180;-55
2022/06/29 04:15:05;;;;;;;1.90;1.80;;;;;;;19.68;95.57;95280.94;4335525;32;20205;-54
2022/06/29 04:17:32;;;;;;;1.70;1.63;;;;;;;19.63;96.22;95281.22;4329807;32;20209;-52
2022/06/29 04:19:58;;;;;;;4.23;2.10;;;;;;;19.71;96.26;95284.84;4349488;32;20269;-52
2022/06/29 04:22:25;;;;;;;2.63;1.80;;;;;;;19.80;96.03;95283.50;4350109;32;20196;-53
2022/06/29 04:24:52;;;;;;;1.97;1.17;;;;;;;19.76;95.90;95284.56;4356310;32;20189;-52
2022/06/29 04:27:18;;;;;;;1.43;1.43;;;;;;;19.75;95.94;95280.31;4320770;32;20220;-54
2022/06/29 04:29:44;;;;;;;1.63;1.63;;;;;;;19.86;95.70;95281.31;4329276;32;20256;-53
2022/06/29 04:32:12;;;;;;;1.70;1.60;;;;;;;19.86;95.54;95278.62;4365183;32;20201;-53
2022/06/29 04:34:39;;;;;;;2.30;2.20;;;;;;;19.76;95.72;95289.94;4347004;32;20194;-53
2022/06/29 04:37:04;;;;;;;2.07;1.97;;;;;;;19.74;95.43;95282.25;4339741;32;20223;-52
2022/06/29 04:39:30;;;;;;;1.67;1.57;;;;;;;19.63;95.86;95288.50;4370118;32;20185;-51
2022/06/29 04:41:56;;;;;;;1.57;1.50;;;;;;;19.73;96.16;95294.12;4373132;32;20232;-52
2022/06/29 04:44:25;;;;;;;1.93;1.80;;;;;;;19.83;95.67;95296.25;4365133;32;20233;-53
2022/06/29 04:46:56;;;;;;;1.93;1.60;;;;;;;19.76;95.55;95290.72;4362397;32;20244;-52
2022/06/29 04:49:23;;;;;;;1.10;1.10;;;;;;;19.68;95.97;95286.34;4345215;32;20189;-54
2022/06/29 04:51:55;;;;;;;3.70;1.77;;;;;;;19.84;95.76;95280.88;4341667;32;20192;-55
2022/06/29 04:54:22;;;;;;;1.07;1.07;;;;;;;19.74;95.43;95276.84;4353116;32;20200;-49
2022/06/29 04:56:48;;;;;;;1.53;1.50;;;;;;;19.93;94.84;95278.78;4375912;32;20189;-51
2022/06/29 04:59:15;;;;;;;1.13;1.13;;;;;;;19.90;94.95;95274.09;4370377;32;20193;-53
2022/06/29 05:01:47;;;;;;;4.53;1.40;;;;;;;19.96;94.42;95264.59;4373292;32;20297;-55
2022/06/29 05:04:16;;;;;;;1.70;1.60;;;;;;;19.77;94.85;95254.59;4333659;32;20185;-56
2022/06/29 05:06:45;;;;;;;10.87;2.13;;;;;;;19.74;95.40;95255.31;4345678;32;20248;-55
2022/06/29 05:09:12;;;;;;;2.23;2.13;;;;;;;19.76;95.46;95263.00;4353361;32;20185;-54
2022/06/29 05:11:38;;;;;;;2.70;2.50;;;;;;;19.65;95.53;95262.81;4350631;32;20188;-53
2022/06/29 05:14:04;;;;;;;4.13;1.57;;;;;;;19.49;95.79;95272.81;4361673;32;20287;-55
2022/06/29 05:16:31;;;;;;;1.47;1.37;;;;;;;19.47;97.01;95283.16;4349846;32;20211;-53
2022/06/29 05:18:58;;;;;;;12.00;2.03;;;;;;;19.57;96.93;95279.91;4312314;32;20194;-53
2022/06/29 05:21:25;;;;;;;1.63;1.53;;;;;;;19.46;97.31;95273.50;4355205;32;20200;-53
2022/06/29 05:23:51;;;;;;;6.13;2.10;;;;;;;19.55;97.08;95271.41;4330050;32;20194;-52
2022/06/29 05:26:19;;;;;;;2.40;2.20;;;;;;;19.43;96.73;95263.44;4337856;32;20189;-55
2022/06/29 05:28:47;;;;;;;2.90;2.10;;;;;;;19.42;96.94;95256.50;4345981;32;20220;-55
2022/06/29 05:31:14;;;;;;;2.13;2.00;;;;;;;19.27;97.92;95257.31;4318983;32;20189;-54
2022/06/29 05:33:40;;;;;;;1.97;1.87;;;;;;;19.29;98.64;95263.91;4339325;32;20393;-55
2022/06/29 05:36:09;;;;;;;2.07;1.97;;;;;;;19.55;97.80;95266.03;4351135;32;20216;-53
2022/06/29 05:38:36;;;;;;;2.13;2.03;;;;;;;19.50;97.66;95258.25;4323203;32;20246;-53
2022/06/29 05:41:18;;;;;;;1.77;1.73;;;;;;;19.51;97.39;95257.91;4313432;32;20184;-52
2022/06/29 05:43:49;;;;;;;1.93;1.83;;;;;;;19.34;98.53;95247.47;4336407;32;20206;-54
2022/06/29 05:46:15;;;;;;;2.60;2.47;;;;;;;19.25;97.96;95249.59;4343342;32;20201;-54
2022/06/29 05:48:42;;;;;;;3.60;1.93;;;;;;;19.22;98.21;95248.38;4323580;32;20208;-52
2022/06/29 05:51:07;;;;;;;1.40;1.40;;;;;;;19.31;98.44;95239.34;4344797;32;20211;-51
2022/06/29 05:53:34;;;;;;;1.97;1.87;;;;;;;19.41;96.73;95233.41;4340783;32;20284;-54
2022/06/29 05:56:00;;;;;;;2.83;2.73;;;;;;;19.53;96.96;95230.66;4335486;32;20257;-54
2022/06/29 05:58:25;;;;;;;4.13;3.83;;;;;;;19.40;96.14;95229.94;4309739;32;20252;-54
2022/06/29 06:00:51;;;;;;;2.80;2.70;;;;;;;19.26;96.46;95226.94;4294871;33;20213;-54
2022/06/29 06:03:18;;;;;;;11.27;3.57;;;;;;;19.32;96.59;95240.91;4338475;32;20257;-52
2022/06/29 06:05:45;;;;;;;5.83;3.67;;;;;;;19.89;95.87;95246.38;4317223;32;20197;-49
2022/06/29 06:08:15;;;;;;;2.30;2.20;;;;;;;20.22;92.84;95250.47;4310285;32;20197;-46
2022/06/29 06:10:42;;;;;;;3.20;3.00;;;;;;;20.31;90.87;95253.75;4295276;32;20190;-49
2022/06/29 06:13:09;;;;;;;3.33;2.50;;;;;;;20.55;90.22;95258.06;4310356;32;20197;-49
2022/06/29 06:15:38;;;;;;;2.97;2.77;;;;;;;20.77;88.95;95249.19;4327840;32;20278;-47
2022/06/29 06:18:04;;;;;;;5.50;2.50;;;;;;;20.75;88.81;95256.09;4345818;32;20288;-49
2022/06/29 06:20:31;;;;;;;2.63;2.50;;;;;;;21.03;87.57;95256.53;4334991;32;20203;-49
2022/06/29 06:22:57;;;;;;;7.70;3.23;;;;;;;21.00;87.40;95257.25;4324289;32;20189;-45
2022/06/29 06:25:22;;;;;;;1.43;1.43;;;;;;;21.01;87.07;95263.44;4324511;32;20197;-46
2022/06/29 06:27:49;;;;;;;1.70;1.60;;;;;;;21.15;86.48;95242.88;4300344;32;20220;-45
2022/06/29 06:30:14;;;;;;;1.77;1.60;;;;;;;21.10;86.63;95245.87;4318655;32;20192;-46
2022/06/29 06:32:42;;;;;;;1.97;1.87;;;;;;;21.23;86.00;95249.94;4343810;32;20284;-48
2022/06/29 06:35:13;;;;;;;2.83;2.63;;;;;;;21.06;86.80;95257.72;4339761;32;20201;-46
2022/06/29 06:37:39;;;;;;;3.00;1.90;;;;;;;21.15;86.02;95267.16;4325248;32;20192;-48
2022/06/29 06:42:53;;;;;;;7.40;2.90;;;;;;;20.72;88.44;95284.53;4300823;32;20216;-47
2022/06/29 06:45:20;;;;;;;2.33;2.23;;;;;;;20.86;87.74;95292.09;4317604;32;20220;-50
2022/06/29 06:47:47;;;;;;;2.33;2.23;;;;;;;20.86;87.83;95294.78;4331501;32;20219;-48
2022/06/29 06:50:12;;;;;;;2.00;1.90;;;;;;;20.84;87.73;95299.75;4356931;32;20193;-47
2022/06/29 06:52:37;;;;;;;1.97;1.87;;;;;;;20.88;87.47;95304.09;4340904;32;20235;-49
2022/06/29 06:55:05;;;;;;;1.90;1.87;;;;;;;20.66;88.32;95312.16;4333699;32;20265;-50
2022/06/29 06:57:31;;;;;;;2.17;2.07;;;;;;;20.80;88.13;95307.78;4347337;32;20219;-47
2022/06/29 06:59:58;;;;;;;2.30;2.20;;;;;;;20.75;88.48;95301.94;4310980;32;20193;-47
2022/06/29 07:02:27;;;;;;;3.00;2.80;;;;;;;20.80;88.24;95307.00;4336708;32;20298;-53
2022/06/29 07:04:54;;;;;;;2.37;2.27;;;;;;;20.55;89.31;95320.06;4330074;32;20200;-54
2022/06/29 07:07:24;;;;;;;3.00;2.90;;;;;;;20.12;90.97;95324.59;4335828;32;20239;-55
2022/06/29 07:09:51;;;;;;;2.70;2.50;;;;;;;20.03;92.23;95324.00;4329815;32;20197;-50
2022/06/29 07:12:18;;;;;;;2.63;2.53;;;;;;;20.03;92.39;95328.59;4329129;32;20268;-54
2022/06/29 07:14:47;;;;;;;2.50;2.40;;;;;;;19.95;92.94;95329.59;4335968;32;20197;-51
2022/06/29 07:17:17;;;;;;;3.37;3.17;;;;;;;19.92;92.89;95328.37;4345169;32;20181;-52
2022/06/29 07:19:45;;;;;;;3.03;2.93;;;;;;;19.73;93.12;95329.13;4354963;32;20201;-50
2022/06/29 07:22:11;;;;;;;2.60;2.50;;;;;;;19.75;93.47;95328.75;4362809;32;20233;-51
2022/06/29 07:24:38;;;;;;;2.63;2.53;;;;;;;19.91;93.06;95321.44;4325335;32;20265;-54
2022/06/29 07:27:07;;;;;;;2.83;2.73;;;;;;;19.83;92.66;95323.19;4339462;32;21700;-53
2022/06/29 07:29:32;;;;;;;2.57;2.47;;;;;;;19.88;92.76;95328.31;4344293;32;20210;-50
2022/06/29 07:32:05;;;;;;;1.67;1.67;;;;;;;19.98;92.19;95326.19;4349824;32;20213;-55
2022/06/29 07:34:31;;;;;;;3.30;3.17;;;;;;;20.10;90.47;95328.75;4346811;32;20262;-53
2022/06/29 07:36:57;;;;;;;3.73;3.43;;;;;;;19.87;91.55;95326.75;4341485;32;20205;-53
2022/06/29 07:39:23;;;;;;;2.57;2.47;;;;;;;19.90;91.11;95323.34;4329761;32;20201;-54
2022/06/29 07:41:49;;;;;;;2.80;2.70;;;;;;;19.86;91.72;95324.41;4347856;32;20222;-51
2022/06/29 07:44:15;;;;;;;2.97;2.70;;;;;;;19.92;91.62;95314.16;4307290;32;20212;-54
2022/06/29 07:46:40;;;;;;;2.57;2.47;;;;;;;19.96;91.81;95312.28;4343347;32;20193;-52
2022/06/29 07:49:08;;;;;;;2.10;2.00;;;;;;;20.09;92.52;95313.72;4346581;32;20204;-52
2022/06/29 07:51:35;;;;;;;2.67;2.57;;;;;;;20.13;91.67;95312.66;4355261;32;20205;-51
2022/06/29 07:54:04;;;;;;;2.63;2.53;;;;;;;20.15;91.61;95318.50;4374526;32;20188;-51
2022/06/29 07:56:30;;;;;;;2.40;2.20;;;;;;;20.17;91.28;95302.72;4336932;32;20256;-53
2022/06/29 07:58:57;;;;;;;2.83;2.53;;;;;;;20.26;91.43;95305.22;4348378;32;20261;-54
2022/06/29 08:01:24;;;;;;;3.27;3.07;;;;;;;20.35;90.94;95297.72;4337383;32;20215;-51
2022/06/29 08:03:50;;;;;;;2.57;2.43;;;;;;;20.44;89.53;95289.41;4351862;32;20189;-51
2022/06/29 08:06:15;;;;;;;3.10;2.90;;;;;;;20.19;90.43;95272.72;4345151;32;20236;-48
2022/06/29 08:08:45;;;;;;;2.40;2.30;;;;;;;20.27;90.07;95266.34;4351035;32;20192;-49
2022/06/29 08:11:11;;;;;;;2.50;2.40;;;;;;;20.33;90.51;95256.84;4357702;32;20291;-53
2022/06/29 08:13:38;;;;;;;3.30;3.00;;;;;;;20.47;90.08;95256.34;4364077;32;20268;-49
2022/06/29 08:16:08;;;;;;;2.67;2.47;;;;;;;20.47;89.65;95259.06;4366175;32;20279;-52
2022/06/29 08:18:35;;;;;;;2.97;2.83;;;;;;;20.52;89.43;95264.94;4340941;32;20273;-50
2022/06/29 08:21:09;;;;;;;2.20;2.10;;;;;;;20.38;90.60;95286.22;4327358;32;20201;-51
2022/06/29 08:23:37;;;;;;;2.80;2.70;;;;;;;20.38;89.90;95296.22;4345549;32;20310;-54
2022/06/29 08:26:05;;;;;;;2.57;2.47;;;;;;;20.45;90.20;95299.06;4333856;32;20261;-50
2022/06/29 08:28:42;;;;;;;2.47;2.37;;;;;;;20.44;90.56;95311.75;4332822;32;20204;-51
2022/06/29 08:31:08;;;;;;;1.87;1.77;;;;;;;20.38;91.01;95307.78;4352302;32;20271;-54
2022/06/29 08:33:35;;;;;;;2.30;2.20;;;;;;;20.31;90.92;95306.84;4340091;32;20336;-53
2022/06/29 08:36:05;;;;;;;2.10;2.00;;;;;;;20.39;91.09;95308.56;4352646;32;20207;-54
2022/06/29 08:38:33;;;;;;;2.87;2.77;;;;;;;20.40;91.94;95300.13;4321011;32;20209;-53
2022/06/29 08:41:24;;;;;;;1.73;1.73;;;;;;;20.46;90.92;95309.50;4337624;32;20201;-55
2022/06/29 08:43:51;;;;;;;2.27;2.17;;;;;;;20.23;91.30;95298.63;4333012;32;20204;-51
2022/06/29 08:46:21;;;;;;;2.33;2.23;;;;;;;20.27;90.57;95300.59;4323514;32;20237;-50
2022/06/29 08:48:50;;;;;;;2.83;2.73;;;;;;;20.40;89.72;95300.13;4332215;32;20256;-51
2022/06/29 08:51:18;;;;;;;2.07;2.00;;;;;;;20.30;90.63;95300.69;4340170;32;20261;-50
2022/06/29 08:54:06;;;;;;;2.33;2.23;;;;;;;20.36;90.02;95304.66;4341744;32;20219;-54
2022/06/29 08:56:34;;;;;;;2.83;2.63;;;;;;;20.50;90.54;95296.88;4366576;32;20246;-49
2022/06/29 08:59:03;;;;;;;2.40;2.30;;;;;;;20.57;90.31;95297.00;4334816;32;20192;-52
2022/06/29 09:01:32;;;;;;;2.57;2.47;;;;;;;20.53;91.24;95298.06;4346164;32;20205;-51
2022/06/29 09:03:59;;;;;;;1.70;1.60;;;;;;;20.46;91.14;95289.84;4348986;32;20227;-51
2022/06/29 09:06:25;;;;;;;2.17;2.07;;;;;;;20.54;90.94;95300.41;4335668;32;20284;-50
2022/06/29 09:08:51;;;;;;;2.30;2.20;;;;;;;20.58;91.37;95290.44;4335686;32;20188;-50
2022/06/29 09:11:41;;;;;;;2.20;2.10;;;;;;;20.66;91.58;95287.88;4362457;32;20200;-51
2022/06/29 09:14:16;;;;;;;3.50;3.20;;;;;;;20.81;90.66;95297.78;4324120;32;20220;-52
2022/06/29 09:17:02;;;;;;;1.87;1.87;;;;;;;20.99;90.17;95293.47;4316334;32;20184;-56
2022/06/29 09:19:38;;;;;;;2.63;2.53;;;;;;;21.14;89.17;95289.09;4343540;32;20279;-54
2022/06/29 09:22:08;;;;;;;2.23;2.13;;;;;;;21.23;88.31;95293.13;4348093;32;20196;-51
2022/06/29 09:24:36;;;;;;;1.90;1.80;;;;;;;21.21;88.29;95290.00;4354546;32;20219;-54
2022/06/29 09:27:13;;;;;;;2.67;2.57;;;;;;;21.26;87.10;95286.22;4328344;32;20251;-50
2022/06/29 09:29:42;;;;;;;2.50;2.40;;;;;;;21.24;86.34;95283.87;4338029;32;20196;-49
2022/06/29 09:32:13;;;;;;;1.53;1.53;;;;;;;21.27;86.09;95283.16;4346387;32;20193;-52
2022/06/29 09:34:51;;;;;;;2.40;2.30;;;;;;;21.21;87.01;95284.59;4324820;32;20197;-53
2022/06/29 09:37:21;;;;;;;6.83;2.20;;;;;;;21.08;85.61;95298.63;4275651;33;20205;-51
2022/06/29 09:39:50;;;;;;;2.30;2.20;;;;;;;21.17;85.28;95294.56;4327609;32;20185;-56
2022/06/29 09:42:24;;;;;;;2.23;2.03;;;;;;;21.11;85.91;95296.00;4327361;32;20193;-52
2022/06/29 09:44:53;;;;;;;9.57;3.00;;;;;;;21.07;86.03;95297.84;4335087;32;20243;-53
2022/06/29 09:47:22;;;;;;;8.50;3.23;;;;;;;21.04;85.28;95301.25;4336875;32;20232;-51
2022/06/29 09:49:53;;;;;;;5.20;2.80;;;;;;;20.98;85.61;95301.94;4354447;32;20201;-55
2022/06/29 09:52:20;;;;;;;2.23;2.13;;;;;;;21.00;86.03;95295.03;4329559;32;20197;-52
2022/06/29 09:54:51;;;;;;;1.63;1.63;;;;;;;20.98;88.65;95291.94;4327744;32;20202;-53
2022/06/29 09:57:19;;;;;;;2.60;2.50;;;;;;;20.98;88.19;95291.94;4328718;32;20205;-54
2022/06/29 10:03:01;;;;;;;1.07;1.07;;;;;;;21.14;87.05;95294.50;4340391;32;20299;-54
2022/06/29 10:05:54;;;;;;;2.10;2.00;;;;;;;21.25;86.75;95290.84;4339669;32;20319;-54
2022/06/29 10:08:16;;;;;;;1.50;1.50;;;;;;;21.38;85.05;95288.75;4329249;32;20208;-50
2022/06/29 10:10:57;;;;;;;1.53;1.53;;;;;;;21.52;84.18;95285.47;4297866;33;20185;-51
2022/06/29 10:13:42;;;;;;;1.10;1.10;;;;;;;21.71;83.42;95274.53;4302766;33;20199;-56
2022/06/29 10:16:26;;;;;;;1.90;1.80;;;;;;;21.84;83.46;95273.16;4333952;32;20189;-50
2022/06/29 10:19:30;;;;;;;1.97;1.80;;;;;;;21.81;83.07;95278.53;4346949;32;20242;-51
2022/06/29 10:21:57;;;;;;;1.40;1.40;;;;;;;22.01;82.03;95276.50;4325133;32;20212;-55
2022/06/29 10:24:28;;;;;;;1.47;1.47;;;;;;;22.01;82.13;95271.88;4313253;32;20197;-51
2022/06/29 10:26:57;;;;;;;1.03;1.03;;;;;;;22.00;81.09;95269.50;4338836;32;20201;-50
2022/06/29 10:29:27;;;;;;;0.80;0.80;;;;;;;21.95;82.02;95274.09;4324436;32;20192;-51
2022/06/29 10:32:05;;;;;;;1.57;1.57;;;;;;;21.95;82.00;95276.78;4325383;32;20289;-51
2022/06/29 10:34:34;;;;;;;2.73;2.53;;;;;;;21.90;83.08;95269.00;4320661;32;20205;-53
2022/06/29 10:37:15;;;;;;;1.43;1.43;;;;;;;21.85;82.21;95273.94;4344074;32;20189;-50
2022/06/29 10:39:50;;;;;;;1.60;1.60;;;;;;;21.96;82.17;95277.56;4350773;32;20215;-51
2022/06/29 10:45:24;;;;;;;4.93;2.13;;;;;;;22.10;79.96;95261.56;4337559;32;20243;-50
2022/06/29 10:47:58;;;;;;;1.63;1.63;;;;;;;22.08;80.92;95271.94;4325905;32;20204;-50
2022/06/29 10:50:31;;;;;;;2.20;2.10;;;;;;;22.07;80.74;95272.31;4349902;32;20189;-52
2022/06/29 10:53:14;;;;;;;2.27;2.17;;;;;;;22.23;80.62;95262.88;4358686;32;20298;-50
2022/06/29 10:55:44;;;;;;;1.37;1.37;;;;;;;22.26;78.67;95267.53;4338173;32;20201;-51
2022/06/29 10:58:11;;;;;;;1.20;1.20;;;;;;;22.34;78.01;95268.41;4328271;32;20200;-52
2022/06/29 11:00:38;;;;;;;1.23;1.23;;;;;;;22.25;80.08;95265.19;4317153;32;20394;-53
2022/06/29 11:03:22;;;;;;;1.33;1.33;;;;;;;22.35;79.05;95261.84;4342112;32;20223;-54
2022/06/29 11:17:00;;;;;;;1.57;1.57;;;;;;;22.77;76.17;95236.38;4359380;32;20239;-54
2022/06/29 11:19:29;;;;;;;1.03;1.03;;;;;;;22.87;75.82;95233.75;4352058;32;20212;-53
2022/06/29 11:22:16;;;;;;;1.07;1.07;;;;;;;22.76;75.67;95234.81;4302289;32;20198;-53
2022/06/29 11:24:57;;;;;;;0.60;0.60;;;;;;;22.83;76.21;95226.78;4334418;32;20212;-50
2022/06/29 11:27:38;;;;;;;1.00;1.00;;;;;;;22.91;74.78;95223.75;4355196;32;20248;-51
2022/06/29 11:30:22;;;;;;;0.83;0.83;;;;;;;23.04;75.64;95210.72;4361486;32;20369;-54
2022/06/29 11:32:50;;;;;;;1.00;1.00;;;;;;;23.21;73.30;95223.59;4357151;32;20211;-50
2022/06/29 11:35:27;;;;;;;0.90;0.90;;;;;;;23.26;72.17;95209.72;4360249;32;20207;-52
2022/06/29 11:38:01;;;;;;;1.10;1.10;;;;;;;23.19;72.83;95209.66;4368284;32;20253;-56
2022/06/29 11:40:42;;;;;;;1.10;1.10;;;;;;;23.24;72.35;95222.84;4364443;32;20214;-51
2022/06/29 11:43:18;;;;;;;1.87;1.77;;;;;;;23.18;75.21;95229.78;4336276;32;20291;-52
2022/06/29 11:45:45;;;;;;;1.13;1.13;;;;;;;23.16;76.27;95229.37;4338714;32;20196;-51
2022/06/29 11:48:15;;;;;;;1.10;1.10;;;;;;;23.13;74.82;95226.62;4338426;32;20224;-50
2022/06/29 11:50:51;;;;;;;1.80;1.53;;;;;;;23.27;75.64;95229.44;4362775;32;20200;-55
2022/06/29 11:53:39;;;;;;;0.93;0.93;;;;;;;23.34;74.80;95226.00;4304451;32;20292;-56
2022/06/29 11:56:19;;;;;;;1.83;1.73;;;;;;;23.24;74.45;95227.50;4362931;32;20276;-54
2022/06/29 11:59:02;;;;;;;3.30;1.37;;;;;;;23.29;72.89;95236.03;4351796;32;20189;-51
2022/06/29 12:01:28;;;;;;;1.30;1.20;;;;;;;23.11;74.80;95237.81;4333678;32;20196;-48
2022/06/29 12:04:03;;;;;;;1.73;1.73;;;;;;;22.98;75.91;95233.88;4365313;32;20196;-53
2022/06/29 12:06:36;;;;;;;0.87;0.87;;;;;;;22.96;76.58;95233.47;4325134;32;20203;-51
2022/06/29 12:09:04;;;;;;;4.40;1.53;;;;;;;22.86;76.23;95237.63;4326673;32;20204;-54